Time;durP1;ratioP1;P1;durP2;ratioP2;P2;SDS_P1;SDS_P2;PMS_P1;PMS_P2;Temp;Humidity;BMP_temperature;BMP_pressure;BME280_temperature;BME280_humidity;BME280_pressure;Samples;Min_cycle;Max_cycle;Signal;HPM_P1;HPM_P2
2022/12/25 00:01:34;;;;;;;14.80;5.18;;;;;;;10.47;72.12;101399.41;5098134;28;20084;-70
2022/12/25 00:04:03;;;;;;;13.80;4.07;;;;;;;10.46;72.17;101400.44;5109406;28;20068;-71
2022/12/25 00:06:31;;;;;;;10.52;4.32;;;;;;;10.45;72.16;101398.78;5102438;28;20052;-70
2022/12/25 00:08:59;;;;;;;14.93;5.20;;;;;;;10.46;72.28;101383.50;5094902;28;20466;-71
2022/12/25 00:11:26;;;;;;;13.40;4.28;;;;;;;10.46;72.16;101383.50;5100942;28;20101;-71
2022/12/25 00:13:54;;;;;;;10.52;5.75;;;;;;;10.46;72.01;101380.81;5111028;28;20677;-71
2022/12/25 00:16:25;;;;;;;17.40;5.07;;;;;;;10.47;72.10;101390.53;5100558;28;20131;-69
2022/12/25 00:18:53;;;;;;;12.07;3.88;;;;;;;10.46;72.14;101395.06;5102351;28;20051;-69
2022/12/25 00:21:22;;;;;;;13.15;3.78;;;;;;;10.46;72.07;101402.31;5101633;28;20044;-71
2022/12/25 00:23:54;;;;;;;11.68;3.85;;;;;;;10.45;72.30;101396.09;5101291;28;20060;-71
2022/12/25 00:26:22;;;;;;;14.43;4.65;;;;;;;10.45;72.11;101396.09;5104461;28;20747;-71
2022/12/25 00:28:52;;;;;;;9.82;4.20;;;;;;;10.46;72.33;101395.06;5105143;28;20055;-71
2022/12/25 00:31:21;;;;;;;10.70;3.97;;;;;;;10.46;72.18;101388.88;5093567;28;20123;-68
2022/12/25 00:33:50;;;;;;;11.90;4.15;;;;;;;10.38;72.23;101379.19;5104926;28;20446;-70
2022/12/25 00:36:21;;;;;;;12.35;5.55;;;;;;;10.45;72.22;101382.66;5104895;28;20044;-72
2022/12/25 00:38:50;;;;;;;8.50;4.18;;;;;;;10.46;72.16;101394.25;5105409;28;20299;-70
2022/12/25 00:42:17;;;;;;;9.43;3.72;;;;;;;10.46;72.39;101394.25;5106534;28;20079;-71
2022/12/25 00:44:12;;;;;;;7.30;3.25;;;;;;;10.47;72.37;101390.53;5103694;28;20176;-68
2022/12/25 00:46:41;;;;;;;12.35;4.15;;;;;;;10.47;72.51;101388.66;5105183;28;20048;-71
2022/12/25 00:49:09;;;;;;;9.35;4.05;;;;;;;10.44;72.19;101384.53;5118038;28;20056;-71
2022/12/25 00:51:37;;;;;;;10.43;3.25;;;;;;;10.45;72.28;101393.41;5112943;28;20087;-71
2022/12/25 00:54:06;;;;;;;9.18;3.47;;;;;;;10.46;72.25;101391.56;5106955;28;20048;-71
2022/12/25 00:56:34;;;;;;;10.75;4.00;;;;;;;10.46;72.42;101384.31;5105909;28;20112;-71
2022/12/25 00:59:02;;;;;;;11.93;3.58;;;;;;;10.46;72.41;101372.75;5106096;28;20052;-71
2022/12/25 01:01:30;;;;;;;8.73;3.50;;;;;;;10.45;72.31;101374.59;5102689;28;20182;-71
2022/12/25 01:03:59;;;;;;;9.80;3.50;;;;;;;10.43;72.31;101369.44;5106412;28;20056;-71
2022/12/25 01:06:27;;;;;;;11.25;3.13;;;;;;;10.45;72.57;101374.59;5104696;28;20050;-71
2022/12/25 01:11:42;;;;;;;20.08;4.55;;;;;;;10.44;72.70;101371.09;5103403;28;20052;-70
2022/12/25 01:14:11;;;;;;;9.93;3.50;;;;;;;10.46;72.59;101376.25;5114170;28;20120;-71
2022/12/25 01:16:39;;;;;;;11.77;3.10;;;;;;;10.44;72.09;101371.09;5107293;28;20048;-71
2022/12/25 01:19:07;;;;;;;13.02;3.10;;;;;;;10.46;72.82;101364.69;5106279;28;20477;-71
2022/12/25 01:21:36;;;;;;;9.40;3.15;;;;;;;10.44;72.77;101368.41;5102524;28;20067;-71
2022/12/25 01:24:05;;;;;;;17.38;3.75;;;;;;;10.43;72.85;101364.06;5106225;28;20116;-69
2022/12/25 01:26:33;;;;;;;11.65;3.60;;;;;;;10.42;72.84;101365.09;5104490;28;20127;-71
2022/12/25 01:29:02;;;;;;;9.95;3.20;;;;;;;10.43;72.90;101371.31;5109205;28;20040;-71
2022/12/25 01:31:30;;;;;;;12.05;3.35;;;;;;;10.43;73.05;101374.81;5113087;28;20048;-70
2022/12/25 01:33:58;;;;;;;8.00;2.83;;;;;;;10.43;72.70;101385.56;5095753;28;20055;-67
2022/12/25 01:36:26;;;;;;;9.13;3.95;;;;;;;10.43;72.89;101392.81;5103174;28;20058;-70
2022/12/25 01:38:54;;;;;;;8.75;3.80;;;;;;;10.42;72.90;101389.28;5109834;28;20122;-71
2022/12/25 01:41:25;;;;;;;10.43;3.60;;;;;;;10.43;72.96;101385.56;5098205;28;20068;-71
2022/12/25 01:44:05;;;;;;;11.65;3.90;;;;;;;10.43;73.04;101387.44;5103100;28;20040;-71
2022/12/25 01:46:34;;;;;;;8.50;3.30;;;;;;;10.43;72.99;101390.13;5103300;28;20047;-70
2022/12/25 01:49:06;;;;;;;7.57;2.80;;;;;;;10.40;73.02;101388.66;5101412;28;20255;-70
2022/12/25 01:51:39;;;;;;;7.47;3.20;;;;;;;10.42;73.03;101401.91;5101797;28;20116;-71
2022/12/25 01:54:12;;;;;;;7.50;2.63;;;;;;;10.42;73.03;101405.41;5104684;28;20340;-70
2022/12/25 01:56:42;;;;;;;12.90;3.70;;;;;;;10.43;73.07;101420.50;5102326;28;20389;-70
2022/12/25 01:59:15;;;;;;;9.52;3.10;;;;;;;10.42;72.94;101418.84;5106527;28;20069;-71
2022/12/25 02:01:44;;;;;;;6.97;2.55;;;;;;;10.42;73.11;101413.47;5103239;28;20048;-70
2022/12/25 02:04:20;;;;;;;5.50;2.40;;;;;;;10.42;72.88;101421.53;5107247;28;20043;-66
2022/12/25 02:06:51;;;;;;;6.22;3.10;;;;;;;10.43;72.94;101422.34;5098894;28;20072;-70
2022/12/25 02:09:19;;;;;;;8.75;2.67;;;;;;;10.42;72.96;101421.53;5099174;28;20047;-71
2022/12/25 02:11:59;;;;;;;6.43;2.88;;;;;;;10.42;73.01;101426.91;5101169;28;20074;-70
2022/12/25 02:14:32;;;;;;;8.82;2.70;;;;;;;10.43;73.09;101414.28;5100331;28;20045;-70
2022/12/25 02:17:12;;;;;;;9.73;2.70;;;;;;;10.41;73.17;101409.13;5102748;28;20056;-70
2022/12/25 02:20:01;;;;;;;7.22;2.80;;;;;;;10.42;73.03;101423.38;5098843;28;20044;-70
2022/12/25 02:22:42;;;;;;;14.77;3.03;;;;;;;10.41;73.09;101419.06;5100446;28;20131;-70
2022/12/25 02:25:29;;;;;;;10.32;2.38;;;;;;;10.42;73.13;101423.38;5102187;28;20136;-69
2022/12/25 02:28:05;;;;;;;;;;;;;;;10.40;73.00;101423.59;5101006;28;20470;-71
2022/12/25 02:30:40;;;;;;;6.00;2.55;;;;;;;10.40;72.97;101428.97;5102367;28;20011;-71
2022/12/25 02:36:05;;;;;;;7.57;2.60;;;;;;;10.40;73.26;101425.50;5102083;28;20512;-71
2022/12/25 02:38:36;;;;;;;9.10;2.78;;;;;;;10.40;73.17;101417.44;5103685;28;20040;-71
2022/12/25 02:41:09;;;;;;;7.20;2.78;;;;;;;10.40;73.10;101412.06;5101104;28;20067;-71
2022/12/25 03:11:59;;;;;;;6.65;2.55;;;;;;;10.35;73.13;101369.69;5101208;28;20048;-71
2022/12/25 03:17:14;;;;;;;4.70;2.30;;;;;;;10.36;73.11;101352.53;5098699;28;20048;-71
2022/12/25 03:28:07;;;;;;;8.82;2.30;;;;;;;10.36;73.11;101336.41;5027156;28;20061;-71
2022/12/25 03:33:38;;;;;;;5.15;2.33;;;;;;;10.36;73.25;101328.34;5017461;28;20132;-71
2022/12/25 03:36:20;;;;;;;9.13;3.03;;;;;;;10.36;73.31;101338.28;5017834;28;20050;-71
2022/12/25 04:37:42;;;;;;;4.55;2.05;;;;;;;10.30;73.05;101307.69;5000575;28;20070;-71
2022/12/25 04:40:11;;;;;;;4.82;1.88;;;;;;;10.30;73.08;101310.38;4988567;28;20054;-70
2022/12/25 04:42:39;;;;;;;4.85;2.28;;;;;;;10.31;73.29;101322.78;4979112;28;20047;-71
2022/12/25 04:45:09;;;;;;;6.18;1.92;;;;;;;10.31;73.01;101321.94;4982372;28;20043;-71
2022/12/25 04:47:36;;;;;;;7.53;1.90;;;;;;;10.30;73.23;101322.97;4985276;28;20106;-70
2022/12/25 04:50:05;;;;;;;5.63;1.88;;;;;;;10.29;73.11;101311.41;5024914;28;20046;-71
2022/12/25 04:52:35;;;;;;;5.85;2.28;;;;;;;10.19;73.23;101292.19;5041843;28;20053;-71
2022/12/25 04:55:03;;;;;;;4.53;1.70;;;;;;;10.27;73.12;101313.47;5069998;28;20067;-71
2022/12/25 04:57:33;;;;;;;4.50;1.83;;;;;;;10.27;73.38;101315.34;5103695;28;20066;-71
2022/12/25 05:00:00;;;;;;;2.72;1.65;;;;;;;10.26;73.00;101314.50;5103799;28;20083;-70
2022/12/25 05:02:28;;;;;;;4.65;1.83;;;;;;;10.25;73.08;101302.13;5102649;28;20397;-71
2022/12/25 05:04:57;;;;;;;5.70;2.28;;;;;;;10.27;73.15;101296.53;5103198;28;20143;-71
2022/12/25 05:07:24;;;;;;;7.07;2.53;;;;;;;10.26;73.06;101289.50;5105365;28;20123;-71
2022/12/25 05:09:52;;;;;;;4.32;1.90;;;;;;;10.28;73.08;101284.75;5094011;28;20044;-71
2022/12/25 05:12:20;;;;;;;3.58;1.65;;;;;;;10.28;73.17;101284.75;5103344;28;20051;-70
2022/12/25 05:14:49;;;;;;;6.88;2.10;;;;;;;10.28;73.04;101274.00;5101530;28;20036;-70
2022/12/25 05:17:17;;;;;;;5.55;1.83;;;;;;;10.26;73.11;101282.28;5100933;28;20054;-71
2022/12/25 05:19:45;;;;;;;4.35;1.75;;;;;;;10.25;73.27;101291.38;5104959;28;20055;-70
2022/12/25 05:22:12;;;;;;;6.35;2.10;;;;;;;10.26;73.27;101287.66;5101993;28;20048;-70
2022/12/25 05:24:40;;;;;;;7.50;2.00;;;;;;;10.28;73.26;101282.06;5102832;28;20067;-70
2022/12/25 05:27:08;;;;;;;4.28;2.10;;;;;;;10.27;73.36;101281.25;5103169;28;20048;-71
2022/12/25 05:29:36;;;;;;;6.10;1.95;;;;;;;10.26;73.18;101276.91;5103722;28;20098;-70
2022/12/25 05:32:06;;;;;;;3.75;2.50;;;;;;;10.26;73.09;101266.16;5103742;28;20058;-69
2022/12/25 05:34:33;;;;;;;3.15;1.40;;;;;;;10.26;73.31;101241.97;5101419;28;20079;-71
2022/12/25 05:37:01;;;;;;;5.75;1.63;;;;;;;10.25;73.47;101243.03;5104228;28;20044;-71
2022/12/25 05:39:29;;;;;;;3.72;2.05;;;;;;;10.26;73.30;101241.97;4745469;28;9999636;-71
2022/12/25 05:41:57;;;;;;;3.78;1.73;;;;;;;10.26;73.19;101244.66;5088520;28;20078;-69
2022/12/25 05:44:25;;;;;;;4.00;1.70;;;;;;;10.28;73.26;101255.22;5097851;28;20506;-70
2022/12/25 05:46:53;;;;;;;6.28;1.70;;;;;;;10.27;73.25;101245.50;5096483;28;20507;-69
2022/12/25 05:49:22;;;;;;;4.45;2.10;;;;;;;10.27;73.27;101248.19;5100458;28;20044;-68
2022/12/25 05:51:50;;;;;;;5.40;1.65;;;;;;;10.29;73.23;101246.13;5097694;28;20504;-68
2022/12/25 05:54:17;;;;;;;5.70;2.00;;;;;;;10.27;73.26;101248.19;5097931;28;20051;-70
2022/12/25 05:56:45;;;;;;;3.65;2.17;;;;;;;10.27;73.27;101245.50;5099238;28;20063;-71
2022/12/25 05:59:13;;;;;;;4.43;1.80;;;;;;;10.27;73.43;101240.94;5098880;28;20059;-70
2022/12/25 06:01:41;;;;;;;5.85;1.52;;;;;;;10.29;73.44;101240.75;5100603;28;20044;-70
2022/12/25 06:04:09;;;;;;;4.07;1.48;;;;;;;10.28;73.38;101231.84;5099001;28;20067;-69
2022/12/25 06:06:41;;;;;;;3.40;1.50;;;;;;;10.28;73.28;101233.72;5099375;28;20147;-69
2022/12/25 06:09:11;;;;;;;3.90;1.80;;;;;;;10.27;73.10;101232.06;5097971;28;20079;-66
2022/12/25 06:11:39;;;;;;;4.13;1.67;;;;;;;10.25;73.26;101224.22;5095479;28;20103;-67
2022/12/25 06:14:07;;;;;;;4.20;1.40;;;;;;;10.25;73.12;101213.47;5099266;28;20135;-68
2022/12/25 06:16:35;;;;;;;4.38;1.50;;;;;;;10.27;73.37;101213.25;5101350;28;20058;-67
2022/12/25 06:19:05;;;;;;;3.75;1.50;;;;;;;10.25;73.15;101208.09;5101638;28;20048;-67
2022/12/25 06:21:34;;;;;;;4.22;1.33;;;;;;;10.26;73.33;101215.13;5092372;28;20374;-69
2022/12/25 06:24:03;;;;;;;4.00;1.55;;;;;;;10.25;73.29;101204.59;5103979;28;20572;-69
2022/12/25 06:26:31;;;;;;;3.40;1.88;;;;;;;10.25;73.22;101204.59;5102217;28;20056;-68
2022/12/25 06:28:59;;;;;;;4.32;1.48;;;;;;;10.23;73.63;101204.81;5103399;28;20380;-68
2022/12/25 06:31:27;;;;;;;7.03;1.85;;;;;;;10.24;73.15;101227.13;5094633;28;20083;-67
2022/12/25 06:33:55;;;;;;;4.60;1.70;;;;;;;10.26;73.25;101212.44;5099779;28;20048;-67
2022/12/25 06:36:25;;;;;;;7.95;2.00;;;;;;;10.17;73.50;101202.91;5100233;28;20189;-68
2022/12/25 06:38:53;;;;;;;5.30;1.75;;;;;;;10.25;73.39;101209.97;5088297;28;20104;-66
2022/12/25 06:41:24;;;;;;;3.47;1.20;;;;;;;10.25;73.19;101196.53;5099973;28;20036;-63
2022/12/25 06:43:54;;;;;;;3.92;2.08;;;;;;;10.25;73.39;101189.28;5082017;28;20047;-65
2022/12/25 06:46:23;;;;;;;3.22;1.70;;;;;;;10.24;73.20;101179.59;5090342;28;20044;-66
2022/12/25 06:48:52;;;;;;;4.88;1.60;;;;;;;10.26;73.45;101174.00;5092690;28;20040;-66
2022/12/25 06:51:21;;;;;;;6.00;2.13;;;;;;;10.20;73.43;101148.00;5091435;28;20057;-68
2022/12/25 06:53:50;;;;;;;6.47;1.60;;;;;;;10.15;73.38;101134.34;5086625;28;20048;-66
2022/12/25 06:56:20;;;;;;;3.67;1.50;;;;;;;10.23;73.43;101137.66;5090591;28;20059;-69
2022/12/25 06:58:50;;;;;;;2.83;1.23;;;;;;;10.25;73.56;101140.13;5091279;28;20067;-67
2022/12/25 07:01:21;;;;;;;4.97;1.52;;;;;;;10.15;73.86;101127.09;5088917;28;20052;-68
2022/12/25 07:03:52;;;;;;;5.10;1.67;;;;;;;10.23;73.48;101143.03;5100847;28;21215;-66
2022/12/25 07:06:20;;;;;;;5.78;2.58;;;;;;;10.22;73.60;101141.38;5098052;28;20356;-64
2022/12/25 07:08:48;;;;;;;1.65;1.20;;;;;;;10.21;73.47;101134.34;5095763;28;20066;-66
2022/12/25 07:11:16;;;;;;;4.55;1.52;;;;;;;10.23;73.29;101140.34;5100280;28;20089;-67
2022/12/25 07:13:44;;;;;;;3.72;1.65;;;;;;;10.17;73.64;101125.03;5090814;28;20509;-64
2022/12/25 07:16:14;;;;;;;3.90;1.50;;;;;;;10.24;73.53;101139.28;5097730;28;20107;-67
2022/12/25 07:18:42;;;;;;;4.00;1.35;;;;;;;10.23;73.45;101140.34;5097052;28;20078;-64
2022/12/25 07:21:12;;;;;;;3.15;1.80;;;;;;;10.22;73.55;101141.38;5096219;28;20054;-67
2022/12/25 07:23:41;;;;;;;6.00;1.50;;;;;;;10.15;73.46;101145.09;5091845;28;20051;-70
2022/12/25 07:26:10;;;;;;;5.22;1.77;;;;;;;10.21;73.70;101163.91;5110752;28;20052;-63
2022/12/25 07:28:39;;;;;;;3.63;1.48;;;;;;;10.20;73.51;101175.69;5097529;28;20048;-61
2022/12/25 07:31:10;;;;;;;7.15;1.85;;;;;;;10.21;73.66;101171.13;5099081;28;20048;-65
2022/12/25 07:33:39;;;;;;;2.63;1.30;;;;;;;10.19;73.87;101174.00;5094399;28;20044;-65
2022/12/25 07:36:08;;;;;;;2.60;1.50;;;;;;;10.19;73.67;101179.38;5099776;28;20079;-65
2022/12/25 07:38:39;;;;;;;3.15;1.38;;;;;;;10.20;73.82;101175.69;5097718;28;20044;-65
2022/12/25 07:41:08;;;;;;;3.38;1.50;;;;;;;10.19;74.02;101157.88;5097693;28;20492;-63
2022/12/25 07:43:37;;;;;;;4.57;1.75;;;;;;;10.20;73.86;101145.31;5095520;28;20043;-66
2022/12/25 07:46:05;;;;;;;3.50;1.52;;;;;;;10.20;73.83;101156.03;5103912;28;20044;-65
2022/12/25 07:48:33;;;;;;;3.35;1.80;;;;;;;10.19;73.93;101152.50;5096217;28;20148;-64
2022/12/25 07:51:05;;;;;;;5.22;1.80;;;;;;;10.25;73.59;101148.19;5099437;28;20090;-66
2022/12/25 07:53:33;;;;;;;5.30;1.65;;;;;;;10.37;73.38;101154.53;5099332;28;20054;-67
2022/12/25 07:56:04;;;;;;;4.53;1.67;;;;;;;10.51;73.24;101156.09;5100790;28;20048;-67
2022/12/25 07:58:32;;;;;;;4.30;1.38;;;;;;;10.68;72.48;101169.88;5094229;28;20082;-69
2022/12/25 08:01:03;;;;;;;5.38;1.67;;;;;;;10.84;71.73;101179.31;5096874;28;20048;-69
2022/12/25 08:03:32;;;;;;;4.20;1.92;;;;;;;10.96;71.10;101194.53;5091289;28;20048;-69
2022/12/25 08:06:05;;;;;;;5.82;2.05;;;;;;;11.07;70.66;101210.00;5091270;28;20036;-68
2022/12/25 08:08:34;;;;;;;3.35;1.58;;;;;;;11.08;70.66;101203.56;5093247;28;20044;-69
2022/12/25 08:11:02;;;;;;;7.40;1.85;;;;;;;11.04;70.83;101209.59;5094742;28;20044;-70
2022/12/25 08:13:31;;;;;;;4.50;1.80;;;;;;;10.93;70.85;101208.41;5095610;28;20048;-69
2022/12/25 08:16:00;;;;;;;3.67;1.70;;;;;;;10.87;71.21;101227.28;5097457;28;20044;-67
2022/12/25 08:18:29;;;;;;;7.00;1.98;;;;;;;10.70;71.41;101210.81;5095976;28;20082;-67
2022/12/25 08:21:01;;;;;;;9.73;1.70;;;;;;;10.71;72.06;101233.97;5094662;28;20153;-69
2022/12/25 08:23:30;;;;;;;4.25;1.63;;;;;;;10.65;72.16;101234.81;5096192;28;20135;-72
2022/12/25 08:25:59;;;;;;;5.25;1.40;;;;;;;10.61;72.40;101225.53;5099211;28;20051;-67
2022/12/25 08:28:33;;;;;;;2.50;1.38;;;;;;;10.57;72.50;101203.63;5095452;28;20052;-70
2022/12/25 08:31:06;;;;;;;5.53;1.83;;;;;;;10.54;72.72;101198.66;5094244;28;20555;-71
2022/12/25 08:33:35;;;;;;;4.28;2.00;;;;;;;10.51;72.88;101200.97;5096310;28;20044;-68
2022/12/25 08:36:04;;;;;;;4.80;1.60;;;;;;;10.50;72.81;101220.81;5091647;28;20142;-66
2022/12/25 08:38:33;;;;;;;4.25;1.63;;;;;;;10.46;72.84;101220.41;5101171;28;20047;-67
2022/12/25 08:41:01;;;;;;;7.60;2.47;;;;;;;10.43;73.07;101218.16;5099643;28;20040;-67
2022/12/25 08:43:29;;;;;;;5.75;1.95;;;;;;;10.41;73.13;101247.91;5101338;28;20048;-67
2022/12/25 08:45:57;;;;;;;2.83;1.52;;;;;;;10.41;73.28;101253.28;5089844;28;20064;-68
2022/12/25 08:48:25;;;;;;;3.80;2.10;;;;;;;10.40;73.18;101250.84;5100744;28;20044;-68
2022/12/25 08:50:53;;;;;;;3.28;2.00;;;;;;;10.38;73.41;101251.03;5094629;28;20044;-68
2022/12/25 08:53:21;;;;;;;7.97;1.67;;;;;;;10.36;73.32;101237.00;5102545;28;20113;-68
2022/12/25 08:55:57;;;;;;;5.07;2.15;;;;;;;10.35;73.41;101232.66;5100559;28;20039;-68
2022/12/25 08:58:25;;;;;;;5.10;1.70;;;;;;;10.34;73.25;101230.19;5104978;28;20055;-75
2022/12/25 09:00:53;;;;;;;6.68;1.80;;;;;;;10.32;73.49;101222.34;5105103;28;20083;-72
2022/12/25 09:03:21;;;;;;;5.25;2.05;;;;;;;10.32;73.25;101216.13;5098777;28;20044;-71
2022/12/25 09:05:49;;;;;;;4.05;2.47;;;;;;;10.32;73.41;101210.75;5103391;28;20044;-73
2022/12/25 09:08:17;;;;;;;3.35;1.83;;;;;;;10.22;73.65;101178.16;5102175;28;20226;-72
2022/12/25 09:10:45;;;;;;;6.07;2.40;;;;;;;10.30;73.57;101181.44;5101884;28;20051;-73
2022/12/25 09:13:15;;;;;;;4.53;2.05;;;;;;;10.28;73.39;101178.13;5104770;28;20139;-72
2022/12/25 09:15:42;;;;;;;4.57;2.03;;;;;;;10.27;73.57;101197.16;5096289;28;20064;-73
2022/12/25 09:18:10;;;;;;;6.72;2.85;;;;;;;10.18;73.86;101198.38;5105954;28;20057;-72
2022/12/25 09:20:38;;;;;;;8.93;2.47;;;;;;;10.27;74.01;101216.78;5105420;28;20408;-72
2022/12/25 09:23:06;;;;;;;2.53;1.60;;;;;;;10.25;73.85;101221.53;5092699;28;20116;-72
2022/12/25 09:25:40;;;;;;;4.25;1.80;;;;;;;10.26;73.84;101215.13;5097173;28;20139;-72
2022/12/25 09:28:08;;;;;;;5.18;2.28;;;;;;;10.25;73.84;101215.34;5097971;28;20048;-72
2022/12/25 09:30:38;;;;;;;8.50;2.67;;;;;;;10.25;73.95;101201.91;5095225;28;20059;-72
2022/12/25 09:33:06;;;;;;;5.00;2.25;;;;;;;10.24;73.91;101194.88;5104344;28;20528;-72
2022/12/25 09:35:34;;;;;;;3.05;1.90;;;;;;;10.24;73.70;101190.34;5105270;28;20048;-71
2022/12/25 09:38:02;;;;;;;6.55;2.28;;;;;;;10.24;74.05;101181.44;5100855;28;20048;-71
2022/12/25 09:40:31;;;;;;;5.15;2.72;;;;;;;10.23;74.01;101174.44;5104595;28;20066;-71
2022/12/25 09:43:01;;;;;;;4.28;1.98;;;;;;;10.15;74.06;101162.03;5100521;28;20036;-71
2022/12/25 09:45:35;;;;;;;4.07;1.95;;;;;;;10.22;74.22;101184.34;5099981;28;20108;-71
2022/12/25 09:48:04;;;;;;;4.72;2.25;;;;;;;10.22;74.04;101184.34;5098681;28;20100;-72
2022/12/25 09:50:40;;;;;;;5.97;2.83;;;;;;;10.22;74.14;101187.03;5104675;28;20046;-72
2022/12/25 09:53:14;;;;;;;6.90;2.22;;;;;;;10.22;74.40;101181.66;5101564;28;20131;-72
2022/12/25 09:55:48;;;;;;;5.00;2.20;;;;;;;10.22;74.15;101170.91;5104311;28;20189;-73
2022/12/25 09:58:16;;;;;;;7.40;2.30;;;;;;;10.23;74.27;101169.06;5103689;28;20115;-73
2022/12/25 10:00:53;;;;;;;3.65;1.73;;;;;;;10.23;74.08;101169.06;5085520;28;20357;-72
2022/12/25 10:03:41;;;;;;;5.93;2.33;;;;;;;10.21;74.24;101165.75;5103861;28;20048;-72
2022/12/25 10:06:19;;;;;;;9.07;2.83;;;;;;;10.21;74.28;101163.91;5101804;28;20122;-72
2022/12/25 10:09:20;;;;;;;6.03;2.20;;;;;;;10.22;74.27;101145.91;5095862;28;20059;-71
2022/12/25 10:12:10;;;;;;;3.65;1.95;;;;;;;10.22;74.12;101140.53;5085732;28;20087;-72
2022/12/25 10:14:46;;;;;;;5.72;2.10;;;;;;;10.22;74.47;101145.91;5102971;28;20131;-72
2022/12/25 10:17:31;;;;;;;4.55;2.30;;;;;;;10.13;74.43;101137.25;5105025;28;20044;-72
2022/12/25 10:20:07;;;;;;;5.55;2.42;;;;;;;10.22;74.38;101145.91;5103883;28;20476;-66
2022/12/25 10:22:40;;;;;;;7.97;3.13;;;;;;;10.22;74.26;101141.38;5103314;28;20051;-71
2022/12/25 10:25:15;;;;;;;5.32;2.05;;;;;;;10.22;74.20;101137.84;5102716;28;20594;-71
2022/12/25 10:27:44;;;;;;;3.90;1.90;;;;;;;10.20;74.41;101140.75;5103430;28;20101;-71
2022/12/25 10:30:16;;;;;;;3.90;2.10;;;;;;;10.20;74.21;101135.38;5095293;28;20045;-72
2022/12/25 10:32:45;;;;;;;4.97;2.13;;;;;;;10.20;74.42;101129.19;5104308;28;20130;-72
2022/12/25 10:35:17;;;;;;;7.63;2.10;;;;;;;10.21;74.41;101139.72;5103022;28;20051;-71
2022/12/25 10:37:52;;;;;;;4.13;2.03;;;;;;;10.20;74.39;101134.56;5094736;28;20074;-71
2022/12/25 10:40:31;;;;;;;3.83;1.80;;;;;;;10.23;74.15;101139.50;5103858;28;20109;-72
2022/12/25 10:43:08;;;;;;;6.22;2.20;;;;;;;10.21;74.41;101137.03;5096985;28;20079;-71
2022/12/25 10:45:43;;;;;;;5.43;2.35;;;;;;;10.22;74.30;101129.81;5102506;28;20051;-72
2022/12/25 10:48:19;;;;;;;3.50;2.00;;;;;;;10.21;74.38;101122.78;5099487;28;20049;-72
2022/12/25 10:50:49;;;;;;;6.82;2.50;;;;;;;10.10;74.72;101100.88;5094728;28;20561;-72
2022/12/25 10:53:22;;;;;;;5.13;2.53;;;;;;;10.21;74.49;101101.28;5102465;28;20068;-72
2022/12/25 10:55:55;;;;;;;5.00;2.17;;;;;;;10.20;74.44;101095.09;5097066;28;20108;-72
2022/12/25 10:58:23;;;;;;;3.65;2.10;;;;;;;10.20;74.48;101070.09;5089286;28;20067;-72
2022/12/25 11:00:53;;;;;;;5.68;2.35;;;;;;;10.20;74.64;101064.72;5100570;28;20044;-72
2022/12/25 11:03:24;;;;;;;4.20;2.17;;;;;;;10.20;74.62;101067.41;5109696;28;20052;-72
2022/12/25 11:05:54;;;;;;;3.78;2.58;;;;;;;10.20;74.50;101078.97;5098408;28;20052;-72
2022/12/25 11:08:25;;;;;;;6.65;3.10;;;;;;;10.21;74.55;101077.13;5103145;28;20103;-72
2022/12/25 11:10:55;;;;;;;5.05;2.35;;;;;;;10.19;74.73;101088.03;5102617;28;20053;-72
2022/12/25 11:13:25;;;;;;;4.82;2.30;;;;;;;10.20;74.77;101091.59;5097594;28;20068;-72
2022/12/25 11:16:05;;;;;;;4.18;2.28;;;;;;;10.10;74.63;101065.97;5102043;28;20119;-72
2022/12/25 11:18:43;;;;;;;7.80;2.90;;;;;;;10.19;74.85;101073.78;5103438;28;20044;-72
2022/12/25 11:21:18;;;;;;;4.82;2.70;;;;;;;10.19;74.95;101063.03;5098876;28;20056;-72
2022/12/25 11:23:50;;;;;;;6.07;2.70;;;;;;;10.20;74.88;101065.56;5099278;28;20048;-72
2022/12/25 11:26:18;;;;;;;5.03;2.28;;;;;;;10.20;74.78;101051.31;5096096;28;20063;-73
2022/12/25 11:28:48;;;;;;;2.65;1.88;;;;;;;10.20;74.79;101040.56;5101347;28;20042;-68
2022/12/25 11:31:18;;;;;;;3.67;2.30;;;;;;;10.20;74.84;101041.38;5097698;28;20048;-72
2022/12/25 11:33:53;;;;;;;5.18;2.33;;;;;;;10.21;74.94;101047.56;5102016;28;20072;-72
2022/12/25 11:36:29;;;;;;;4.80;2.83;;;;;;;10.18;74.75;101038.06;5098415;28;20079;-73
2022/12/25 11:39:05;;;;;;;6.50;3.03;;;;;;;10.21;74.97;101036.81;5087705;28;20392;-72
2022/12/25 11:41:36;;;;;;;7.07;2.70;;;;;;;10.15;75.10;101016.16;5099254;28;20123;-72
2022/12/25 11:44:11;;;;;;;5.50;2.70;;;;;;;10.21;75.14;101020.72;5100561;28;20216;-71
2022/12/25 11:46:45;;;;;;;6.47;2.63;;;;;;;10.21;75.09;101028.78;5094067;28;20047;-73
2022/12/25 11:49:17;;;;;;;4.95;2.30;;;;;;;10.21;74.96;101028.78;5102190;28;20098;-72
2022/12/25 11:51:50;;;;;;;4.88;2.50;;;;;;;10.20;74.99;101027.13;5102398;28;20095;-73
2022/12/25 11:54:25;;;;;;;5.78;2.55;;;;;;;10.22;75.18;101015.13;5102303;28;20119;-68
2022/12/25 11:56:53;;;;;;;4.13;2.42;;;;;;;10.15;74.83;101010.78;5102166;28;20051;-72
2022/12/25 11:59:25;;;;;;;5.25;2.40;;;;;;;10.13;75.34;100999.44;5100281;28;20046;-69
2022/12/25 12:01:58;;;;;;;4.82;2.47;;;;;;;10.21;75.15;101004.59;5099929;28;20059;-71
2022/12/25 12:04:31;;;;;;;4.88;2.90;;;;;;;10.22;74.92;101000.88;5100089;28;20048;-73
2022/12/25 12:07:20;;;;;;;3.92;2.40;;;;;;;10.23;75.09;101008.72;5098068;28;20044;-73
2022/12/25 12:09:56;;;;;;;5.30;2.42;;;;;;;10.23;74.98;101011.41;5091559;28;20044;-72
2022/12/25 12:12:34;;;;;;;6.13;2.50;;;;;;;10.23;75.17;101014.09;5104433;28;20062;-71
2022/12/25 12:15:11;;;;;;;3.70;2.13;;;;;;;10.23;75.18;101013.25;5104782;28;20043;-73
2022/12/25 12:17:39;;;;;;;7.30;2.75;;;;;;;10.23;74.85;101007.91;5106004;28;20119;-71
2022/12/25 12:20:26;;;;;;;4.45;2.60;;;;;;;10.23;75.09;100989.09;5095238;28;20133;-72
2022/12/25 12:22:56;;;;;;;;;;;;;;;10.22;74.98;100974.84;5096489;28;20107;-73
2022/12/25 12:25:24;;;;;;;3.47;2.17;;;;;;;10.22;75.06;100974.84;5106348;28;19920;-72
2022/12/25 12:27:55;;;;;;;4.40;2.80;;;;;;;10.21;75.17;100977.75;5097519;28;20048;-72
2022/12/25 12:30:34;;;;;;;5.40;3.30;;;;;;;10.22;75.13;100982.91;5102889;28;20075;-71
2022/12/25 12:33:05;;;;;;;6.07;3.55;;;;;;;10.22;75.14;100982.06;5105585;28;20048;-67
2022/12/25 12:35:36;;;;;;;5.82;2.70;;;;;;;10.21;75.22;100951.72;5106617;28;20051;-73
2022/12/25 12:38:09;;;;;;;4.85;2.60;;;;;;;10.21;75.21;100946.34;5103351;28;20139;-72
2022/12/25 12:40:41;;;;;;;3.90;2.67;;;;;;;10.22;75.32;100952.53;5104313;28;20139;-67
2022/12/25 12:43:28;;;;;;;5.95;3.22;;;;;;;10.14;75.15;100950.06;5106241;28;20124;-70
2022/12/25 12:46:01;;;;;;;3.72;2.30;;;;;;;10.23;75.37;100970.28;5104860;28;20044;-72
2022/12/25 12:48:30;;;;;;;3.70;2.67;;;;;;;10.23;75.23;100968.44;5105214;28;20153;-71
2022/12/25 12:51:08;;;;;;;3.58;2.10;;;;;;;10.22;75.27;100963.28;5092757;28;20048;-72
2022/12/25 12:53:39;;;;;;;4.95;2.53;;;;;;;10.24;75.15;100963.88;5104873;28;20044;-71
2022/12/25 12:56:12;;;;;;;3.55;2.60;;;;;;;10.24;75.03;100971.94;5101805;28;20056;-72
2022/12/25 12:58:47;;;;;;;4.45;2.47;;;;;;;10.24;74.90;100961.19;5097548;28;20487;-71
2022/12/25 13:01:38;;;;;;;4.25;2.50;;;;;;;10.23;75.23;100956.84;5104018;28;20058;-73
2022/12/25 13:04:27;;;;;;;5.95;2.10;;;;;;;10.23;75.10;100957.69;5105426;28;20078;-71
2022/12/25 13:07:04;;;;;;;3.47;2.40;;;;;;;10.24;75.00;100953.97;5106248;28;20071;-71
2022/12/25 13:09:49;;;;;;;4.75;2.50;;;;;;;10.24;75.05;100935.16;5091010;28;20067;-72
2022/12/25 13:12:19;;;;;;;3.92;2.53;;;;;;;10.24;74.92;100926.28;5103784;28;20069;-72
2022/12/25 13:14:48;;;;;;;4.78;3.00;;;;;;;10.25;75.20;100922.53;5094200;28;20107;-72
2022/12/25 13:17:20;;;;;;;4.38;2.42;;;;;;;10.24;75.16;100912.84;5105750;28;20080;-72
2022/12/25 13:19:52;;;;;;;4.07;2.30;;;;;;;10.24;75.26;100900.25;5101701;28;20580;-71
2022/12/25 13:22:25;;;;;;;4.28;2.13;;;;;;;10.25;75.35;100895.69;5104055;28;20048;-72
2022/12/25 13:24:59;;;;;;;4.30;2.65;;;;;;;10.24;75.43;100894.03;5105080;28;20044;-72
2022/12/25 13:27:29;;;;;;;6.35;3.20;;;;;;;10.24;75.52;100920.91;5092105;28;20054;-72
2022/12/25 13:29:58;;;;;;;4.22;2.83;;;;;;;10.25;75.18;100915.31;5102999;28;20035;-72